Granite Canon, Wyoming
Current Conditions -  °F | °C
As of 5:56 PM on Tuesday 21 Oct 2014 (Local Time) from KFEW Reporting Station
Broken Clouds Broken Clouds  
Wind Chill: 16°   Ceiling: 8000
Heat Index: 16°   Visibility: 10mi
Dew Point:   Wind: 10mph
Humidity: 42%   Direction: 300°WNW
Pressure: 29.94"   Gusts: NA
Location:  41.1°N, 105.14°W
Report Text: KFEW 212356Z 30009KT 10SM BKN080 16/03 A2994 RMK AO2A SLP096 T01550026 10227 20155 50002 $
Loading
Personal Weather Stations






























Interactive Weather Map
Tropical Storm Tracking
New forecast layout! Learn more

10-Day Weather Forecast

Advertisements
Track Severe Weather on mobile